sensor_id;sensor_type;location;lat;lon;timestamp;pressure;altitude;pressure_sealevel;temperature;humidity
46009;BME280;39597;51.438;7.006;2022-09-03T00:01:22;99858.38;;;17.52;46.32
46009;BME280;39597;51.438;7.006;2022-09-03T00:03:56;99852.06;;;17.52;46.33
46009;BME280;39597;51.438;7.006;2022-09-03T00:06:35;99851.28;;;17.58;46.18
46009;BME280;39597;51.438;7.006;2022-09-03T00:09:24;99847.34;;;17.52;46.36
46009;BME280;39597;51.438;7.006;2022-09-03T00:12:13;99847.75;;;17.58;46.37
46009;BME280;39597;51.438;7.006;2022-09-03T00:15:01;99846.97;;;17.50;46.34
46009;BME280;39597;51.438;7.006;2022-09-03T00:17:35;99850.84;;;17.45;46.56
46009;BME280;39597;51.438;7.006;2022-09-03T00:20:06;99842.16;;;17.33;46.85
46009;BME280;39597;51.438;7.006;2022-09-03T00:22:36;99844.94;;;17.40;46.65
46009;BME280;39597;51.438;7.006;2022-09-03T00:25:05;99847.69;;;17.43;46.87
46009;BME280;39597;51.438;7.006;2022-09-03T00:27:38;99848.06;;;17.35;46.84
46009;BME280;39597;51.438;7.006;2022-09-03T00:30:08;99835.88;;;17.36;46.77
46009;BME280;39597;51.438;7.006;2022-09-03T00:32:47;99832.34;;;17.35;46.68
46009;BME280;39597;51.438;7.006;2022-09-03T00:35:19;99834.72;;;17.40;46.64
46009;BME280;39597;51.438;7.006;2022-09-03T00:37:50;99831.97;;;17.44;46.61
46009;BME280;39597;51.438;7.006;2022-09-03T00:44:04;99837.72;;;17.10;47.64
46009;BME280;39597;51.438;7.006;2022-09-03T00:46:28;99831.38;;;16.99;48.10
46009;BME280;39597;51.438;7.006;2022-09-03T00:52:23;99836.50;;;16.97;48.30
46009;BME280;39597;51.438;7.006;2022-09-03T00:55:06;99839.56;;;16.85;48.90
46009;BME280;39597;51.438;7.006;2022-09-03T01:00:17;99841.41;;;16.70;49.21
46009;BME280;39597;51.438;7.006;2022-09-03T01:03:05;99839.09;;;16.76;48.79
46009;BME280;39597;51.438;7.006;2022-09-03T01:05:47;99841.41;;;16.70;49.04
46009;BME280;39597;51.438;7.006;2022-09-03T01:08:31;99835.03;;;16.63;49.18
46009;BME280;39597;51.438;7.006;2022-09-03T01:11:35;99832.03;;;16.78;48.77
46009;BME280;39597;51.438;7.006;2022-09-03T01:22:53;99835.09;;;16.66;48.73
46009;BME280;39597;51.438;7.006;2022-09-03T01:28:48;99844.50;;;16.65;49.10
46009;BME280;39597;51.438;7.006;2022-09-03T01:37:34;99837.03;;;16.66;48.88
46009;BME280;39597;51.438;7.006;2022-09-03T01:40:12;99837.84;;;16.66;49.01
46009;BME280;39597;51.438;7.006;2022-09-03T01:42:59;99841.84;;;16.76;48.74
46009;BME280;39597;51.438;7.006;2022-09-03T01:45:53;99832.81;;;16.79;48.83
46009;BME280;39597;51.438;7.006;2022-09-03T01:48:39;99835.22;;;16.84;48.56
46009;BME280;39597;51.438;7.006;2022-09-03T01:58:51;99831.28;;;16.81;48.37
46009;BME280;39597;51.438;7.006;2022-09-03T02:01:29;99828.94;;;16.80;48.56
46009;BME280;39597;51.438;7.006;2022-09-03T02:03:58;99824.16;;;16.77;48.58
46009;BME280;39597;51.438;7.006;2022-09-03T02:06:25;99831.72;;;16.87;48.22
46009;BME280;39597;51.438;7.006;2022-09-03T02:08:51;99829.34;;;16.89;48.21
46009;BME280;39597;51.438;7.006;2022-09-03T02:11:16;99837.63;;;16.96;48.18
46009;BME280;39597;51.438;7.006;2022-09-03T02:13:46;99821.94;;;16.97;47.96
46009;BME280;39597;51.438;7.006;2022-09-03T02:16:20;99824.31;;;17.02;47.98
46009;BME280;39597;51.438;7.006;2022-09-03T02:18:49;99822.69;;;16.94;47.82
46009;BME280;39597;51.438;7.006;2022-09-03T02:21:18;99817.16;;;16.87;48.24
46009;BME280;39597;51.438;7.006;2022-09-03T02:23:45;99822.00;;;17.07;47.55
46009;BME280;39597;51.438;7.006;2022-09-03T02:26:12;99831.81;;;17.12;47.55
46009;BME280;39597;51.438;7.006;2022-09-03T02:28:39;99824.75;;;17.07;47.83
46009;BME280;39597;51.438;7.006;2022-09-03T02:31:05;99818.50;;;17.14;47.44
46009;BME280;39597;51.438;7.006;2022-09-03T02:33:37;99823.56;;;17.05;47.66
46009;BME280;39597;51.438;7.006;2022-09-03T02:36:05;99827.44;;;16.97;48.00
46009;BME280;39597;51.438;7.006;2022-09-03T02:38:31;99827.78;;;16.92;48.36
46009;BME280;39597;51.438;7.006;2022-09-03T02:40:56;99823.47;;;16.87;48.24
46009;BME280;39597;51.438;7.006;2022-09-03T02:43:26;99817.56;;;16.85;48.15
46009;BME280;39597;51.438;7.006;2022-09-03T02:46:01;99827.31;;;16.75;48.50
46009;BME280;39597;51.438;7.006;2022-09-03T02:48:28;99823.75;;;16.75;48.46
46009;BME280;39597;51.438;7.006;2022-09-03T02:50:53;99815.47;;;16.68;48.70
46009;BME280;39597;51.438;7.006;2022-09-03T02:53:19;99815.78;;;16.63;48.81
46009;BME280;39597;51.438;7.006;2022-09-03T02:55:44;99818.94;;;16.61;49.01
46009;BME280;39597;51.438;7.006;2022-09-03T02:58:10;99821.78;;;16.68;48.74
46009;BME280;39597;51.438;7.006;2022-09-03T03:00:35;99819.84;;;16.76;48.50
46009;BME280;39597;51.438;7.006;2022-09-03T03:03:04;99817.41;;;16.64;48.81
46009;BME280;39597;51.438;7.006;2022-09-03T03:05:51;99818.97;;;16.65;49.19
46009;BME280;39597;51.438;7.006;2022-09-03T03:08:18;99812.78;;;16.78;48.88
46009;BME280;39597;51.438;7.006;2022-09-03T03:10:46;99828.09;;;16.79;48.62
46009;BME280;39597;51.438;7.006;2022-09-03T03:13:12;99818.25;;;16.71;48.79
46009;BME280;39597;51.438;7.006;2022-09-03T03:15:38;99815.44;;;16.64;49.09
46009;BME280;39597;51.438;7.006;2022-09-03T03:18:03;99821.72;;;16.65;49.39
46009;BME280;39597;51.438;7.006;2022-09-03T03:20:28;99821.34;;;16.66;49.12
46009;BME280;39597;51.438;7.006;2022-09-03T03:22:54;99817.00;;;16.65;48.94
46009;BME280;39597;51.438;7.006;2022-09-03T03:25:19;99820.03;;;16.49;49.51
46009;BME280;39597;51.438;7.006;2022-09-03T03:27:45;99821.16;;;16.41;49.74
46009;BME280;39597;51.438;7.006;2022-09-03T03:30:11;99818.78;;;16.43;50.03
46009;BME280;39597;51.438;7.006;2022-09-03T03:32:36;99818.47;;;16.48;49.83
46009;BME280;39597;51.438;7.006;2022-09-03T03:35:02;99812.91;;;16.41;50.07
46009;BME280;39597;51.438;7.006;2022-09-03T03:37:27;99811.31;;;16.37;50.36
46009;BME280;39597;51.438;7.006;2022-09-03T03:39:53;99810.91;;;16.35;50.30
46009;BME280;39597;51.438;7.006;2022-09-03T03:42:18;99807.28;;;16.27;50.44
46009;BME280;39597;51.438;7.006;2022-09-03T03:44:43;99810.81;;;16.28;50.43
46009;BME280;39597;51.438;7.006;2022-09-03T03:47:09;99807.34;;;16.31;50.45
46009;BME280;39597;51.438;7.006;2022-09-03T03:49:34;99803.38;;;16.28;50.68
46009;BME280;39597;51.438;7.006;2022-09-03T03:51:59;99803.81;;;16.34;50.54
46009;BME280;39597;51.438;7.006;2022-09-03T03:54:27;99806.13;;;16.28;50.86
46009;BME280;39597;51.438;7.006;2022-09-03T03:56:52;99804.00;;;16.11;51.32
46009;BME280;39597;51.438;7.006;2022-09-03T03:59:17;99807.25;;;16.23;50.97
46009;BME280;39597;51.438;7.006;2022-09-03T04:01:43;99802.91;;;16.19;51.11
46009;BME280;39597;51.438;7.006;2022-09-03T04:04:08;99798.47;;;16.04;51.40
46009;BME280;39597;51.438;7.006;2022-09-03T04:06:33;99800.09;;;16.12;51.42
46009;BME280;39597;51.438;7.006;2022-09-03T04:08:58;99790.22;;;16.04;51.62
46009;BME280;39597;51.438;7.006;2022-09-03T04:11:24;99796.13;;;16.06;51.82
46009;BME280;39597;51.438;7.006;2022-09-03T04:13:50;99794.97;;;16.07;51.69
46009;BME280;39597;51.438;7.006;2022-09-03T04:16:16;99790.72;;;16.13;51.81
46009;BME280;39597;51.438;7.006;2022-09-03T04:18:42;99792.25;;;16.10;51.67
46009;BME280;39597;51.438;7.006;2022-09-03T04:21:14;99792.56;;;16.02;52.09
46009;BME280;39597;51.438;7.006;2022-09-03T04:23:41;99786.00;;;16.13;51.53
46009;BME280;39597;51.438;7.006;2022-09-03T04:26:09;99789.53;;;16.14;51.44
46009;BME280;39597;51.438;7.006;2022-09-03T04:28:36;99789.19;;;16.19;51.34
46009;BME280;39597;51.438;7.006;2022-09-03T04:31:04;99780.50;;;16.13;51.53
46009;BME280;39597;51.438;7.006;2022-09-03T04:33:31;99784.47;;;16.19;51.23
46009;BME280;39597;51.438;7.006;2022-09-03T04:36:08;99784.88;;;16.18;51.27
46009;BME280;39597;51.438;7.006;2022-09-03T04:38:35;99780.50;;;16.13;51.43
46009;BME280;39597;51.438;7.006;2022-09-03T04:41:00;99785.09;;;15.99;52.01
46009;BME280;39597;51.438;7.006;2022-09-03T04:43:27;99781.50;;;15.94;52.26
46009;BME280;39597;51.438;7.006;2022-09-03T04:45:57;99784.34;;;16.05;52.08
46009;BME280;39597;51.438;7.006;2022-09-03T04:48:23;99785.25;;;16.16;51.56
46009;BME280;39597;51.438;7.006;2022-09-03T04:50:49;99778.31;;;16.33;51.20
46009;BME280;39597;51.438;7.006;2022-09-03T04:53:14;99779.94;;;16.41;50.83
46009;BME280;39597;51.438;7.006;2022-09-03T04:55:39;99787.75;;;16.39;51.05
46009;BME280;39597;51.438;7.006;2022-09-03T04:58:04;99789.34;;;16.40;50.93
46009;BME280;39597;51.438;7.006;2022-09-03T05:00:32;99793.50;;;16.20;51.45
46009;BME280;39597;51.438;7.006;2022-09-03T05:03:00;99793.91;;;16.22;51.55
46009;BME280;39597;51.438;7.006;2022-09-03T05:05:25;99792.63;;;16.09;51.69
46009;BME280;39597;51.438;7.006;2022-09-03T05:07:51;99785.13;;;16.02;52.01
46009;BME280;39597;51.438;7.006;2022-09-03T05:10:17;99792.97;;;16.04;51.83
46009;BME280;39597;51.438;7.006;2022-09-03T05:12:46;99789.44;;;16.03;51.94
46009;BME280;39597;51.438;7.006;2022-09-03T05:15:14;99793.75;;;16.01;52.02
46009;BME280;39597;51.438;7.006;2022-09-03T05:17:39;99795.22;;;15.94;52.47
46009;BME280;39597;51.438;7.006;2022-09-03T05:20:05;99791.28;;;15.92;52.53
46009;BME280;39597;51.438;7.006;2022-09-03T05:22:34;99792.50;;;15.94;52.48
46009;BME280;39597;51.438;7.006;2022-09-03T05:24:59;99790.59;;;15.99;52.62
46009;BME280;39597;51.438;7.006;2022-09-03T05:27:25;99786.75;;;16.10;52.43
46009;BME280;39597;51.438;7.006;2022-09-03T05:29:50;99784.91;;;16.25;51.77
46009;BME280;39597;51.438;7.006;2022-09-03T05:32:15;99789.19;;;16.19;51.91
46009;BME280;39597;51.438;7.006;2022-09-03T05:34:41;99793.09;;;16.18;52.10
46009;BME280;39597;51.438;7.006;2022-09-03T05:37:07;99800.84;;;16.05;52.31
46009;BME280;39597;51.438;7.006;2022-09-03T05:39:32;99796.94;;;16.10;52.58
46009;BME280;39597;51.438;7.006;2022-09-03T05:41:57;99792.81;;;16.30;52.23
46009;BME280;39597;51.438;7.006;2022-09-03T05:44:23;99795.56;;;16.30;52.03
46009;BME280;39597;51.438;7.006;2022-09-03T05:46:48;99792.56;;;16.49;51.65
46009;BME280;39597;51.438;7.006;2022-09-03T05:49:15;99798.81;;;16.46;51.68
46009;BME280;39597;51.438;7.006;2022-09-03T05:51:41;99792.84;;;16.34;52.07
46009;BME280;39597;51.438;7.006;2022-09-03T05:54:07;99790.09;;;16.37;52.23
46009;BME280;39597;51.438;7.006;2022-09-03T05:56:34;99800.41;;;16.47;52.00
46009;BME280;39597;51.438;7.006;2022-09-03T05:59:02;99802.63;;;16.31;52.28
46009;BME280;39597;51.438;7.006;2022-09-03T06:01:32;99792.81;;;16.30;52.55
46009;BME280;39597;51.438;7.006;2022-09-03T06:03:59;99791.69;;;16.38;52.25
46009;BME280;39597;51.438;7.006;2022-09-03T06:06:26;99789.72;;;16.39;52.60
46009;BME280;39597;51.438;7.006;2022-09-03T06:08:57;99803.19;;;16.54;52.20
46009;BME280;39597;51.438;7.006;2022-09-03T06:11:23;99804.75;;;16.55;52.23
46009;BME280;39597;51.438;7.006;2022-09-03T06:13:50;99797.38;;;16.63;52.01
46009;BME280;39597;51.438;7.006;2022-09-03T06:16:16;99798.56;;;16.66;51.99
46009;BME280;39597;51.438;7.006;2022-09-03T06:18:41;99801.75;;;16.68;51.93
46009;BME280;39597;51.438;7.006;2022-09-03T06:21:07;99803.03;;;16.88;51.66
46009;BME280;39597;51.438;7.006;2022-09-03T06:23:34;99799.50;;;16.91;51.64
46009;BME280;39597;51.438;7.006;2022-09-03T06:26:00;99794.78;;;16.84;51.69
46009;BME280;39597;51.438;7.006;2022-09-03T06:28:25;99801.53;;;16.98;51.53
46009;BME280;39597;51.438;7.006;2022-09-03T06:30:51;99791.63;;;16.86;51.21
46009;BME280;39597;51.438;7.006;2022-09-03T06:33:17;99797.47;;;16.77;51.59
46009;BME280;39597;51.438;7.006;2022-09-03T06:35:42;99802.25;;;16.88;51.56
46009;BME280;39597;51.438;7.006;2022-09-03T06:38:08;99801.44;;;16.80;51.78
46009;BME280;39597;51.438;7.006;2022-09-03T06:40:36;99804.22;;;16.94;51.69
46009;BME280;39597;51.438;7.006;2022-09-03T06:43:01;99802.66;;;16.93;51.70
46009;BME280;39597;51.438;7.006;2022-09-03T06:45:28;99802.31;;;16.98;51.88
46009;BME280;39597;51.438;7.006;2022-09-03T06:47:53;99804.31;;;17.12;51.67
46009;BME280;39597;51.438;7.006;2022-09-03T06:50:19;99799.22;;;17.10;51.60
46009;BME280;39597;51.438;7.006;2022-09-03T06:52:50;99801.63;;;17.23;51.47
46009;BME280;39597;51.438;7.006;2022-09-03T06:55:15;99800.94;;;17.54;50.89
46009;BME280;39597;51.438;7.006;2022-09-03T06:57:40;99800.94;;;17.54;50.79
46009;BME280;39597;51.438;7.006;2022-09-03T07:00:06;99798.28;;;17.76;50.46
46009;BME280;39597;51.438;7.006;2022-09-03T07:02:32;99795.16;;;17.81;50.19
46009;BME280;39597;51.438;7.006;2022-09-03T07:04:57;99793.97;;;17.92;50.09
46009;BME280;39597;51.438;7.006;2022-09-03T07:07:23;99796.72;;;17.92;49.97
46009;BME280;39597;51.438;7.006;2022-09-03T07:09:48;99800.28;;;17.93;49.99
46009;BME280;39597;51.438;7.006;2022-09-03T07:12:13;99804.63;;;18.08;49.51
46009;BME280;39597;51.438;7.006;2022-09-03T07:14:40;99793.59;;;18.08;49.64
46009;BME280;39597;51.438;7.006;2022-09-03T07:17:06;99800.28;;;18.28;49.46
46009;BME280;39597;51.438;7.006;2022-09-03T07:19:31;99797.91;;;18.41;48.57
46009;BME280;39597;51.438;7.006;2022-09-03T07:21:56;99795.94;;;18.56;48.71
46009;BME280;39597;51.438;7.006;2022-09-03T07:24:22;99797.13;;;18.69;48.62
46009;BME280;39597;51.438;7.006;2022-09-03T07:26:47;99798.31;;;18.72;48.43
46009;BME280;39597;51.438;7.006;2022-09-03T07:29:13;99794.75;;;18.78;48.00
46009;BME280;39597;51.438;7.006;2022-09-03T07:31:41;99797.09;;;18.83;47.98
46009;BME280;39597;51.438;7.006;2022-09-03T07:34:09;99801.00;;;18.93;47.96
46009;BME280;39597;51.438;7.006;2022-09-03T07:39:03;99804.00;;;19.38;47.01
46009;BME280;39597;51.438;7.006;2022-09-03T07:41:29;99805.53;;;19.49;46.99
46009;BME280;39597;51.438;7.006;2022-09-03T07:43:57;99805.56;;;19.42;46.87
46009;BME280;39597;51.438;7.006;2022-09-03T07:46:25;99798.41;;;19.56;46.95
46009;BME280;39597;51.438;7.006;2022-09-03T07:48:56;99797.56;;;19.69;47.09
46009;BME280;39597;51.438;7.006;2022-09-03T07:51:24;99796.72;;;19.76;46.27
46009;BME280;39597;51.438;7.006;2022-09-03T07:53:52;99806.94;;;19.86;46.28
46009;BME280;39597;51.438;7.006;2022-09-03T07:56:18;99802.88;;;19.98;46.43
46009;BME280;39597;51.438;7.006;2022-09-03T07:58:43;99801.22;;;20.11;45.89
46009;BME280;39597;51.438;7.006;2022-09-03T08:01:14;99807.53;;;20.11;45.73
46009;BME280;39597;51.438;7.006;2022-09-03T08:03:44;99799.59;;;20.13;45.31
46009;BME280;39597;51.438;7.006;2022-09-03T08:06:10;99802.28;;;20.24;45.40
46009;BME280;39597;51.438;7.006;2022-09-03T08:08:36;99802.22;;;20.35;44.57
46009;BME280;39597;51.438;7.006;2022-09-03T08:11:11;99794.25;;;20.44;44.80
46009;BME280;39597;51.438;7.006;2022-09-03T08:13:38;99800.41;;;20.62;44.23
46009;BME280;39597;51.438;7.006;2022-09-03T08:16:05;99803.47;;;20.71;43.98
46009;BME280;39597;51.438;7.006;2022-09-03T08:18:32;99801.31;;;20.90;44.01
46009;BME280;39597;51.438;7.006;2022-09-03T08:21:00;99799.59;;;21.03;43.07
46009;BME280;39597;51.438;7.006;2022-09-03T08:23:25;99806.69;;;21.04;42.70
46009;BME280;39597;51.438;7.006;2022-09-03T08:25:58;99805.84;;;21.07;43.18
46009;BME280;39597;51.438;7.006;2022-09-03T08:28:24;99801.00;;;21.15;42.35
46009;BME280;39597;51.438;7.006;2022-09-03T08:30:49;99802.34;;;21.03;42.57
46009;BME280;39597;51.438;7.006;2022-09-03T08:33:15;99814.13;;;21.11;42.51
46009;BME280;39597;51.438;7.006;2022-09-03T08:35:40;99818.91;;;21.07;42.40
46009;BME280;39597;51.438;7.006;2022-09-03T08:38:05;99817.59;;;21.18;42.60
46009;BME280;39597;51.438;7.006;2022-09-03T08:40:36;99816.69;;;21.28;42.67
46009;BME280;39597;51.438;7.006;2022-09-03T08:45:33;99808.41;;;21.59;42.09
46009;BME280;39597;51.438;7.006;2022-09-03T08:48:04;99811.81;;;21.70;41.54
46009;BME280;39597;51.438;7.006;2022-09-03T08:50:36;99804.44;;;21.87;41.07
46009;BME280;39597;51.438;7.006;2022-09-03T08:53:12;99813.00;;;21.96;41.28
46009;BME280;39597;51.438;7.006;2022-09-03T08:55:56;99810.59;;;21.71;41.27
46009;BME280;39597;51.438;7.006;2022-09-03T08:58:25;99807.66;;;21.82;41.49
46009;BME280;39597;51.438;7.006;2022-09-03T09:04:00;99805.00;;;21.75;41.49
46009;BME280;39597;51.438;7.006;2022-09-03T09:06:49;99809.19;;;21.86;40.59
46009;BME280;39597;51.438;7.006;2022-09-03T09:20:49;99823.56;;;21.78;40.71
46009;BME280;39597;51.438;7.006;2022-09-03T09:23:26;99808.06;;;21.84;41.05
46009;BME280;39597;51.438;7.006;2022-09-03T09:25:55;99812.47;;;21.78;41.16
46009;BME280;39597;51.438;7.006;2022-09-03T09:28:24;99804.47;;;21.83;41.10
46009;BME280;39597;51.438;7.006;2022-09-03T09:30:53;99812.06;;;21.79;41.20
46009;BME280;39597;51.438;7.006;2022-09-03T09:33:19;99802.69;;;21.97;41.44
46009;BME280;39597;51.438;7.006;2022-09-03T09:35:45;99798.44;;;22.19;40.44
46009;BME280;39597;51.438;7.006;2022-09-03T09:38:11;99798.84;;;22.41;39.79
46009;BME280;39597;51.438;7.006;2022-09-03T09:40:42;99799.34;;;22.36;39.95
46009;BME280;39597;51.438;7.006;2022-09-03T09:43:16;99796.03;;;22.21;39.95
46009;BME280;39597;51.438;7.006;2022-09-03T09:45:45;99783.19;;;22.04;40.24
46009;BME280;39597;51.438;7.006;2022-09-03T09:48:44;99800.63;;;22.04;40.76
46009;BME280;39597;51.438;7.006;2022-09-03T09:51:21;99799.81;;;22.07;40.14
46009;BME280;39597;51.438;7.006;2022-09-03T09:53:48;99806.56;;;22.06;40.48
46009;BME280;39597;51.438;7.006;2022-09-03T09:56:24;99810.00;;;21.83;40.93
46009;BME280;39597;51.438;7.006;2022-09-03T09:59:07;99805.03;;;21.98;40.73
46009;BME280;39597;51.438;7.006;2022-09-03T10:01:36;99798.88;;;22.14;40.37
46009;BME280;39597;51.438;7.006;2022-09-03T10:04:12;99804.91;;;22.09;40.84
46009;BME280;39597;51.438;7.006;2022-09-03T10:06:38;99810.44;;;22.36;40.73
46009;BME280;39597;51.438;7.006;2022-09-03T10:11:55;99806.63;;;22.26;40.33
46009;BME280;39597;51.438;7.006;2022-09-03T10:14:31;99812.81;;;22.34;39.91
46009;BME280;39597;51.438;7.006;2022-09-03T10:17:20;99817.00;;;22.45;39.63
46009;BME280;39597;51.438;7.006;2022-09-03T10:23:14;99801.88;;;22.93;39.71
46009;BME280;39597;51.438;7.006;2022-09-03T10:28:26;99802.91;;;23.23;38.61
46009;BME280;39597;51.438;7.006;2022-09-03T10:31:02;99795.91;;;23.15;38.34
46009;BME280;39597;51.438;7.006;2022-09-03T10:40:24;99797.59;;;23.48;38.31
46009;BME280;39597;51.438;7.006;2022-09-03T10:46:01;99802.44;;;23.64;38.04
46009;BME280;39597;51.438;7.006;2022-09-03T10:51:26;99792.53;;;23.43;39.03
46009;BME280;39597;51.438;7.006;2022-09-03T10:59:28;99797.19;;;23.30;40.46
46009;BME280;39597;51.438;7.006;2022-09-03T11:07:16;99798.09;;;23.43;39.78
46009;BME280;39597;51.438;7.006;2022-09-03T11:10:09;99807.59;;;23.26;40.24
46009;BME280;39597;51.438;7.006;2022-09-03T11:12:42;99807.84;;;23.31;40.61
46009;BME280;39597;51.438;7.006;2022-09-03T11:15:14;99803.69;;;22.80;42.03
46009;BME280;39597;51.438;7.006;2022-09-03T11:18:10;99812.34;;;22.86;41.75
46009;BME280;39597;51.438;7.006;2022-09-03T11:20:41;99811.72;;;22.98;41.66
46009;BME280;39597;51.438;7.006;2022-09-03T11:23:08;99810.50;;;22.99;41.70
46009;BME280;39597;51.438;7.006;2022-09-03T11:25:42;99806.59;;;22.96;41.83
46009;BME280;39597;51.438;7.006;2022-09-03T11:28:30;99808.69;;;23.48;40.63
46009;BME280;39597;51.438;7.006;2022-09-03T11:32:04;99797.75;;;23.41;40.84
46009;BME280;39597;51.438;7.006;2022-09-03T11:34:07;99791.44;;;23.21;41.10
46009;BME280;39597;51.438;7.006;2022-09-03T11:36:38;99800.81;;;23.27;40.71
46009;BME280;39597;51.438;7.006;2022-09-03T11:41:43;99796.84;;;22.88;41.61
46009;BME280;39597;51.438;7.006;2022-09-03T11:44:16;99799.31;;;22.83;42.37
46009;BME280;39597;51.438;7.006;2022-09-03T11:46:55;99796.72;;;22.72;41.50
46009;BME280;39597;51.438;7.006;2022-09-03T11:49:30;99800.69;;;22.94;42.47
46009;BME280;39597;51.438;7.006;2022-09-03T11:51:59;99807.00;;;22.95;41.89
46009;BME280;39597;51.438;7.006;2022-09-03T11:54:26;99801.88;;;23.13;40.72
46009;BME280;39597;51.438;7.006;2022-09-03T11:57:11;99795.38;;;22.80;41.79
46009;BME280;39597;51.438;7.006;2022-09-03T11:59:39;99797.31;;;22.60;42.18
46009;BME280;39597;51.438;7.006;2022-09-03T12:02:25;99799.84;;;22.50;42.59
46009;BME280;39597;51.438;7.006;2022-09-03T12:05:13;99795.28;;;22.40;43.51
46009;BME280;39597;51.438;7.006;2022-09-03T12:11:02;99798.09;;;22.84;42.40
46009;BME280;39597;51.438;7.006;2022-09-03T12:13:32;99804.59;;;22.54;43.41
46009;BME280;39597;51.438;7.006;2022-09-03T12:18:48;99805.69;;;22.79;42.25
46009;BME280;39597;51.438;7.006;2022-09-03T12:21:17;99797.13;;;22.94;41.91
46009;BME280;39597;51.438;7.006;2022-09-03T12:23:48;99798.56;;;23.02;41.40
46009;BME280;39597;51.438;7.006;2022-09-03T12:28:57;99793.28;;;23.07;41.22
46009;BME280;39597;51.438;7.006;2022-09-03T12:31:43;99790.41;;;23.31;40.30
46009;BME280;39597;51.438;7.006;2022-09-03T12:34:12;99790.75;;;23.33;40.70
46009;BME280;39597;51.438;7.006;2022-09-03T12:36:44;99793.75;;;23.42;40.66
46009;BME280;39597;51.438;7.006;2022-09-03T12:39:12;99790.97;;;23.42;40.33
46009;BME280;39597;51.438;7.006;2022-09-03T12:41:38;99787.72;;;23.07;40.91
46009;BME280;39597;51.438;7.006;2022-09-03T12:44:13;99785.72;;;22.88;42.10
46009;BME280;39597;51.438;7.006;2022-09-03T12:46:39;99777.19;;;23.19;40.97
46009;BME280;39597;51.438;7.006;2022-09-03T12:49:05;99778.44;;;23.34;40.47
46009;BME280;39597;51.438;7.006;2022-09-03T12:51:41;99784.28;;;23.59;40.54
46009;BME280;39597;51.438;7.006;2022-09-03T12:54:10;99778.59;;;23.99;40.27
46009;BME280;39597;51.438;7.006;2022-09-03T12:57:00;99777.56;;;24.09;39.88
46009;BME280;39597;51.438;7.006;2022-09-03T12:59:30;99778.25;;;24.46;39.65
46009;BME280;39597;51.438;7.006;2022-09-03T13:02:03;99776.19;;;25.08;38.47
46009;BME280;39597;51.438;7.006;2022-09-03T13:04:38;99788.81;;;24.96;38.13
46009;BME280;39597;51.438;7.006;2022-09-03T13:07:13;99780.41;;;24.83;38.35
46009;BME280;39597;51.438;7.006;2022-09-03T13:09:45;99776.78;;;24.41;39.31
46009;BME280;39597;51.438;7.006;2022-09-03T13:12:28;99786.25;;;24.27;39.90
46009;BME280;39597;51.438;7.006;2022-09-03T13:14:54;99787.16;;;23.72;40.93
46009;BME280;39597;51.438;7.006;2022-09-03T13:20:22;99789.22;;;23.68;42.09
46009;BME280;39597;51.438;7.006;2022-09-03T13:22:56;99777.75;;;23.66;41.75
46009;BME280;39597;51.438;7.006;2022-09-03T13:33:37;99779.69;;;23.13;42.98
46009;BME280;39597;51.438;7.006;2022-09-03T13:36:18;99771.19;;;23.00;43.08
46009;BME280;39597;51.438;7.006;2022-09-03T13:39:01;99777.09;;;22.83;44.31
46009;BME280;39597;51.438;7.006;2022-09-03T13:41:40;99770.22;;;22.91;44.05
46009;BME280;39597;51.438;7.006;2022-09-03T13:44:33;99768.13;;;23.15;43.44
46009;BME280;39597;51.438;7.006;2022-09-03T13:47:46;99764.28;;;23.28;43.59
46009;BME280;39597;51.438;7.006;2022-09-03T13:50:47;99762.94;;;23.17;43.36
46009;BME280;39597;51.438;7.006;2022-09-03T13:56:20;99757.25;;;23.24;43.79
46009;BME280;39597;51.438;7.006;2022-09-03T13:59:12;99764.16;;;23.35;43.33
46009;BME280;39597;51.438;7.006;2022-09-03T14:01:56;99762.97;;;23.53;43.39
46009;BME280;39597;51.438;7.006;2022-09-03T14:04:33;99757.84;;;23.87;42.58
46009;BME280;39597;51.438;7.006;2022-09-03T14:07:16;99755.47;;;24.18;42.37
46009;BME280;39597;51.438;7.006;2022-09-03T14:12:43;99757.81;;;24.81;41.01
46009;BME280;39597;51.438;7.006;2022-09-03T14:15:25;99765.53;;;24.61;41.71
46009;BME280;39597;51.438;7.006;2022-09-03T14:18:15;99756.53;;;24.41;42.13
46009;BME280;39597;51.438;7.006;2022-09-03T14:20:57;99763.31;;;24.40;42.54
46009;BME280;39597;51.438;7.006;2022-09-03T14:26:30;99759.31;;;24.41;42.01
46009;BME280;39597;51.438;7.006;2022-09-03T14:29:14;99758.78;;;24.29;42.09
46009;BME280;39597;51.438;7.006;2022-09-03T14:32:03;99757.81;;;24.52;42.94
46009;BME280;39597;51.438;7.006;2022-09-03T14:34:42;99760.75;;;24.45;42.27
46009;BME280;39597;51.438;7.006;2022-09-03T14:40:24;99763.66;;;24.09;43.62
46009;BME280;39597;51.438;7.006;2022-09-03T14:43:09;99759.84;;;24.19;43.25
46009;BME280;39597;51.438;7.006;2022-09-03T14:51:09;99760.50;;;24.23;43.72
46009;BME280;39597;51.438;7.006;2022-09-03T15:01:42;99757.47;;;24.18;44.08
46009;BME280;39597;51.438;7.006;2022-09-03T15:07:15;99765.13;;;24.30;44.74
46009;BME280;39597;51.438;7.006;2022-09-03T15:12:36;99764.97;;;24.05;44.94
46009;BME280;39597;51.438;7.006;2022-09-03T15:15:09;99772.94;;;23.86;45.33
46009;BME280;39597;51.438;7.006;2022-09-03T15:31:19;99760.69;;;24.16;44.61
46009;BME280;39597;51.438;7.006;2022-09-03T15:36:40;99764.50;;;24.22;44.23
46009;BME280;39597;51.438;7.006;2022-09-03T15:39:16;99763.63;;;24.25;44.35
46009;BME280;39597;51.438;7.006;2022-09-03T15:42:00;99757.84;;;24.20;44.31
46009;BME280;39597;51.438;7.006;2022-09-03T15:44:45;99763.41;;;24.04;44.20
46009;BME280;39597;51.438;7.006;2022-09-03T15:50:38;99762.63;;;24.19;44.01
46009;BME280;39597;51.438;7.006;2022-09-03T16:04:31;99765.81;;;24.01;44.09
46009;BME280;39597;51.438;7.006;2022-09-03T16:07:18;99762.97;;;24.05;44.59
46009;BME280;39597;51.438;7.006;2022-09-03T16:10:18;99762.25;;;24.17;44.17
46009;BME280;39597;51.438;7.006;2022-09-03T16:16:10;99769.66;;;24.08;43.96
46009;BME280;39597;51.438;7.006;2022-09-03T16:18:55;99767.13;;;24.13;43.69